Kezdőlap
METAR-TAF:

METAR-TAF

Repülőterek :

Plainview, Texas, Amerikai Egyesült Államok

földrajzi szélesség: 34-10-05N, földrajzi hosszúság: 101-43-02W, magasság: 1028 m

Jelenlegi meteorológiai megfigyelések

A jelentés 30 perccel ezelõtt készült, 15:35 UTC
Dél-délnyugati szél 21 kt széllökések: 26 kt
Hőmérséklet 26°C
Páratartalom 65%
Légköri nyomás 1009 hPa
Látótávolság: 16.1 km
Szórványos felhőzet 2600 lábon

METAR: KPVW 181535Z AUTO 20021G26KT 10SM SCT026 26/19 A2980 RMK AO2 T02570186

Idő: 11:05 (16:05 UTC)

Előrejelzés

A jelentés 23 perccel ezelõtt készült, 15:42 UTC
Az előrejelzés 18-én 16 óra UTC és 19-én 12 óra UTC között érvényes
Déli szél 18 kt széllökések: 28 kt
Látótávolság: 10 km
Szórványos felhőzet 2500 lábon
18-én 1800 órától UTC szerint
Déli szél 19 kt széllökések: 29 kt
Látótávolság: 10 km
Kevés felhő 5000 lábon

TAF: KPVW 181542Z 1816/1912 19018G28KT P6SM SCT025 FM181800 17019G29KT P6SM FEW050

Meteorológiai megfigyelések és előrejelzések több, mint 4000 repülőtéren (METAR és TAF jelentéseket).

A térképen piros és sárga pontok jelzik az elérhető meteorológiai állomásokat.

Mozgassa az egeret a pont fölött, hogy megjelenjen az állomás neve.

Azután kattintson az időjárási megfigyelések és előrejelzések megtekintéséhez.

A térkép megváltoztatása: kattintson a fekete keresztel jelölt zöld gombra ráközelítéshez, a vonallal jelölt zöld gombra távolításhoz, vagy a zöld nyilakra a szomszédos térképek eléréséhez.


METAR-TAF: